sensor_id;sensor_type;location;lat;lon;timestamp;pressure;altitude;pressure_sealevel;temperature;humidity
64908;BME280;64365;-1.756;110.040;2023-01-04T00:02:08;101678.09;;;9.51;95.79
64908;BME280;64365;-1.756;110.040;2023-01-04T00:04:35;101678.84;;;9.52;95.78
64908;BME280;64365;-1.756;110.040;2023-01-04T00:07:03;101667.91;;;9.53;95.87
64908;BME280;64365;-1.756;110.040;2023-01-04T00:09:29;101669.78;;;9.53;95.83
64908;BME280;64365;-1.756;110.040;2023-01-04T00:11:56;101660.41;;;9.55;96.25
64908;BME280;64365;-1.756;110.040;2023-01-04T00:14:22;101648.56;;;9.53;97.00
64908;BME280;64365;-1.756;110.040;2023-01-04T00:16:49;101628.31;;;9.48;97.33
64908;BME280;64365;-1.756;110.040;2023-01-04T00:19:16;101634.16;;;9.54;96.80
64908;BME280;64365;-1.756;110.040;2023-01-04T00:21:42;101632.19;;;9.51;97.12
64908;BME280;64365;-1.756;110.040;2023-01-04T00:24:10;101631.09;;;9.52;97.55
64908;BME280;64365;-1.756;110.040;2023-01-04T00:26:40;101623.25;;;9.55;97.64
64908;BME280;64365;-1.756;110.040;2023-01-04T00:29:10;101615.94;;;9.52;97.78
64908;BME280;64365;-1.756;110.040;2023-01-04T00:31:37;101610.31;;;9.41;99.21
64908;BME280;64365;-1.756;110.040;2023-01-04T00:34:05;101621.81;;;9.46;98.18
64908;BME280;64365;-1.756;110.040;2023-01-04T00:36:32;101597.84;;;9.42;98.93
64908;BME280;64365;-1.756;110.040;2023-01-04T00:39:00;101604.44;;;9.48;98.49
64908;BME280;64365;-1.756;110.040;2023-01-04T00:41:36;101596.81;;;9.47;99.15
64908;BME280;64365;-1.756;110.040;2023-01-04T00:44:04;101587.66;;;9.44;99.13
64908;BME280;64365;-1.756;110.040;2023-01-04T00:46:31;101571.31;;;9.42;99.83
64908;BME280;64365;-1.756;110.040;2023-01-04T00:48:59;101583.56;;;9.47;99.67
64908;BME280;64365;-1.756;110.040;2023-01-04T00:51:26;101576.03;;;9.49;99.38
64908;BME280;64365;-1.756;110.040;2023-01-04T00:53:52;101568.16;;;9.52;99.87
64908;BME280;64365;-1.756;110.040;2023-01-04T00:56:19;101561.06;;;9.56;99.47
64908;BME280;64365;-1.756;110.040;2023-01-04T00:58:47;101540.13;;;9.51;100.00
64908;BME280;64365;-1.756;110.040;2023-01-04T01:01:14;101550.03;;;9.54;100.00
64908;BME280;64365;-1.756;110.040;2023-01-04T01:03:40;101539.44;;;9.54;100.00
64908;BME280;64365;-1.756;110.040;2023-01-04T01:06:08;101532.56;;;9.53;100.00
64908;BME280;64365;-1.756;110.040;2023-01-04T01:08:35;101538.31;;;9.55;100.00
64908;BME280;64365;-1.756;110.040;2023-01-04T01:11:03;101521.28;;;9.56;100.00
64908;BME280;64365;-1.756;110.040;2023-01-04T01:13:30;101520.16;;;9.57;100.00
64908;BME280;64365;-1.756;110.040;2023-01-04T01:16:02;101520.16;;;9.57;100.00
64908;BME280;64365;-1.756;110.040;2023-01-04T01:18:30;101517.97;;;9.59;100.00
64908;BME280;64365;-1.756;110.040;2023-01-04T01:20:57;101513.19;;;9.65;100.00
64908;BME280;64365;-1.756;110.040;2023-01-04T01:23:24;101513.53;;;9.64;100.00
64908;BME280;64365;-1.756;110.040;2023-01-04T01:25:50;101519.59;;;9.64;100.00
64908;BME280;64365;-1.756;110.040;2023-01-04T01:28:17;101509.84;;;9.68;100.00
64908;BME280;64365;-1.756;110.040;2023-01-04T01:30:43;101492.03;;;9.69;100.00
64908;BME280;64365;-1.756;110.040;2023-01-04T01:33:11;101521.06;;;9.77;100.00
64908;BME280;64365;-1.756;110.040;2023-01-04T01:35:38;101497.59;;;9.64;100.00
64908;BME280;64365;-1.756;110.040;2023-01-04T01:38:04;101487.91;;;9.71;100.00
64908;BME280;64365;-1.756;110.040;2023-01-04T01:40:31;101477.31;;;9.71;100.00
64908;BME280;64365;-1.756;110.040;2023-01-04T01:42:58;101489.13;;;9.74;100.00
64908;BME280;64365;-1.756;110.040;2023-01-04T01:45:30;101518.94;;;9.83;100.00
64908;BME280;64365;-1.756;110.040;2023-01-04T01:50:32;101500.34;;;9.83;100.00
64908;BME280;64365;-1.756;110.040;2023-01-04T01:53:02;101474.00;;;9.90;100.00
64908;BME280;64365;-1.756;110.040;2023-01-04T01:55:31;101485.81;;;9.93;100.00
64908;BME280;64365;-1.756;110.040;2023-01-04T01:57:59;101482.13;;;9.98;100.00
64908;BME280;64365;-1.756;110.040;2023-01-04T02:00:27;101493.00;;;9.92;100.00
64908;BME280;64365;-1.756;110.040;2023-01-04T02:03:02;101481.34;;;9.97;100.00
64908;BME280;64365;-1.756;110.040;2023-01-04T02:05:34;101488.56;;;9.97;100.00
64908;BME280;64365;-1.756;110.040;2023-01-04T02:08:02;101479.38;;;9.94;100.00
64908;BME280;64365;-1.756;110.040;2023-01-04T02:10:30;101483.41;;;10.04;100.00
64908;BME280;64365;-1.756;110.040;2023-01-04T02:12:59;101476.22;;;10.04;100.00
64908;BME280;64365;-1.756;110.040;2023-01-04T02:15:34;101500.91;;;10.05;100.00
64908;BME280;64365;-1.756;110.040;2023-01-04T02:18:07;101495.09;;;10.15;100.00
64908;BME280;64365;-1.756;110.040;2023-01-04T02:20:42;101476.16;;;10.17;100.00
64908;BME280;64365;-1.756;110.040;2023-01-04T02:23:42;101498.16;;;10.17;100.00
64908;BME280;64365;-1.756;110.040;2023-01-04T02:26:46;101480.69;;;10.16;100.00
64908;BME280;64365;-1.756;110.040;2023-01-04T02:29:36;101486.94;;;10.24;100.00
64908;BME280;64365;-1.756;110.040;2023-01-04T02:32:11;101460.44;;;10.27;100.00
64908;BME280;64365;-1.756;110.040;2023-01-04T02:34:44;101481.81;;;10.31;100.00
64908;BME280;64365;-1.756;110.040;2023-01-04T02:37:19;101461.75;;;10.34;100.00
64908;BME280;64365;-1.756;110.040;2023-01-04T02:39:56;101465.28;;;10.38;100.00
64908;BME280;64365;-1.756;110.040;2023-01-04T02:42:35;101466.44;;;10.40;100.00
64908;BME280;64365;-1.756;110.040;2023-01-04T02:45:30;101469.53;;;10.42;100.00
64908;BME280;64365;-1.756;110.040;2023-01-04T02:48:03;101464.31;;;10.46;100.00
64908;BME280;64365;-1.756;110.040;2023-01-04T02:50:52;101461.66;;;10.46;100.00
64908;BME280;64365;-1.756;110.040;2023-01-04T02:53:23;101457.25;;;10.54;100.00
64908;BME280;64365;-1.756;110.040;2023-01-04T02:55:59;101452.72;;;10.54;100.00
64908;BME280;64365;-1.756;110.040;2023-01-04T02:58:52;101446.56;;;10.50;100.00
64908;BME280;64365;-1.756;110.040;2023-01-04T03:01:27;101448.16;;;10.55;100.00
64908;BME280;64365;-1.756;110.040;2023-01-04T03:04:31;101446.38;;;10.59;100.00
64908;BME280;64365;-1.756;110.040;2023-01-04T03:07:24;101439.09;;;10.56;100.00
64908;BME280;64365;-1.756;110.040;2023-01-04T03:09:57;101441.19;;;10.66;100.00
64908;BME280;64365;-1.756;110.040;2023-01-04T03:12:29;101443.94;;;10.70;100.00
64908;BME280;64365;-1.756;110.040;2023-01-04T03:15:04;101443.31;;;10.76;100.00
64908;BME280;64365;-1.756;110.040;2023-01-04T03:17:34;101433.22;;;10.66;100.00
64908;BME280;64365;-1.756;110.040;2023-01-04T03:20:06;101418.53;;;10.72;100.00
64908;BME280;64365;-1.756;110.040;2023-01-04T03:22:36;101428.63;;;10.83;100.00
64908;BME280;64365;-1.756;110.040;2023-01-04T03:25:24;101411.50;;;10.80;100.00
64908;BME280;64365;-1.756;110.040;2023-01-04T03:28:11;101424.50;;;10.85;100.00
64908;BME280;64365;-1.756;110.040;2023-01-04T03:31:00;101425.19;;;10.82;100.00
64908;BME280;64365;-1.756;110.040;2023-01-04T03:33:47;101414.28;;;10.87;100.00
64908;BME280;64365;-1.756;110.040;2023-01-04T03:36:40;101425.63;;;10.84;100.00
64908;BME280;64365;-1.756;110.040;2023-01-04T03:39:16;101423.38;;;10.86;100.00
64908;BME280;64365;-1.756;110.040;2023-01-04T03:42:07;101397.91;;;10.85;100.00
64908;BME280;64365;-1.756;110.040;2023-01-04T03:45:01;101404.28;;;10.81;100.00
64908;BME280;64365;-1.756;110.040;2023-01-04T03:47:57;101413.56;;;10.90;100.00
64908;BME280;64365;-1.756;110.040;2023-01-04T03:50:44;101403.72;;;10.91;100.00
64908;BME280;64365;-1.756;110.040;2023-01-04T03:53:14;101400.44;;;10.98;100.00
64908;BME280;64365;-1.756;110.040;2023-01-04T03:55:42;101389.09;;;11.01;100.00
64908;BME280;64365;-1.756;110.040;2023-01-04T03:58:10;101407.44;;;11.06;100.00
64908;BME280;64365;-1.756;110.040;2023-01-04T04:00:37;101399.16;;;11.11;100.00
64908;BME280;64365;-1.756;110.040;2023-01-04T04:03:05;101390.41;;;11.10;100.00
64908;BME280;64365;-1.756;110.040;2023-01-04T04:05:38;101383.13;;;11.07;100.00
64908;BME280;64365;-1.756;110.040;2023-01-04T04:08:24;101380.53;;;11.11;100.00
64908;BME280;64365;-1.756;110.040;2023-01-04T04:10:55;101386.69;;;11.15;100.00
64908;BME280;64365;-1.756;110.040;2023-01-04T04:13:23;101381.78;;;11.17;100.00
64908;BME280;64365;-1.756;110.040;2023-01-04T04:15:51;101385.63;;;11.20;100.00
64908;BME280;64365;-1.756;110.040;2023-01-04T04:18:18;101381.06;;;11.20;100.00
64908;BME280;64365;-1.756;110.040;2023-01-04T04:20:44;101374.28;;;11.23;100.00
64908;BME280;64365;-1.756;110.040;2023-01-04T04:23:11;101361.31;;;11.21;100.00
64908;BME280;64365;-1.756;110.040;2023-01-04T04:25:39;101374.00;;;11.28;100.00
64908;BME280;64365;-1.756;110.040;2023-01-04T04:28:05;101357.66;;;11.29;100.00
64908;BME280;64365;-1.756;110.040;2023-01-04T04:30:32;101365.78;;;11.37;100.00
64908;BME280;64365;-1.756;110.040;2023-01-04T04:32:58;101347.53;;;11.35;100.00
64908;BME280;64365;-1.756;110.040;2023-01-04T04:35:25;101342.94;;;11.36;100.00
64908;BME280;64365;-1.756;110.040;2023-01-04T04:37:51;101338.03;;;11.38;100.00
64908;BME280;64365;-1.756;110.040;2023-01-04T04:40:18;101333.97;;;11.44;100.00
64908;BME280;64365;-1.756;110.040;2023-01-04T04:43:00;101325.38;;;11.31;100.00
64908;BME280;64365;-1.756;110.040;2023-01-04T04:45:26;101325.91;;;11.40;100.00
64908;BME280;64365;-1.756;110.040;2023-01-04T04:47:53;101340.41;;;11.43;100.00
64908;BME280;64365;-1.756;110.040;2023-01-04T04:50:20;101320.34;;;11.49;100.00
64908;BME280;64365;-1.756;110.040;2023-01-04T04:52:46;101329.88;;;11.50;100.00
64908;BME280;64365;-1.756;110.040;2023-01-04T04:55:13;101319.28;;;11.54;100.00
64908;BME280;64365;-1.756;110.040;2023-01-04T04:57:39;101333.38;;;11.54;100.00
64908;BME280;64365;-1.756;110.040;2023-01-04T05:00:09;101325.72;;;11.53;100.00
64908;BME280;64365;-1.756;110.040;2023-01-04T05:02:35;101324.97;;;11.52;100.00
64908;BME280;64365;-1.756;110.040;2023-01-04T05:05:02;101333.00;;;11.56;100.00
64908;BME280;64365;-1.756;110.040;2023-01-04T05:07:29;101330.72;;;11.54;100.00
64908;BME280;64365;-1.756;110.040;2023-01-04T05:09:55;101337.56;;;11.55;100.00
64908;BME280;64365;-1.756;110.040;2023-01-04T05:12:22;101332.59;;;11.54;100.00
64908;BME280;64365;-1.756;110.040;2023-01-04T05:15:07;101316.09;;;11.44;100.00
64908;BME280;64365;-1.756;110.040;2023-01-04T05:17:34;101315.03;;;11.49;100.00
64908;BME280;64365;-1.756;110.040;2023-01-04T05:20:01;101320.72;;;11.48;100.00
64908;BME280;64365;-1.756;110.040;2023-01-04T05:22:28;101303.97;;;11.47;100.00
64908;BME280;64365;-1.756;110.040;2023-01-04T05:24:54;101314.59;;;11.47;100.00
64908;BME280;64365;-1.756;110.040;2023-01-04T05:27:21;101307.63;;;11.39;100.00
64908;BME280;64365;-1.756;110.040;2023-01-04T05:29:47;101300.91;;;11.45;100.00
64908;BME280;64365;-1.756;110.040;2023-01-04T05:32:33;101280.00;;;11.47;100.00
64908;BME280;64365;-1.756;110.040;2023-01-04T05:35:00;101280.31;;;11.42;100.00
64908;BME280;64365;-1.756;110.040;2023-01-04T05:37:26;101262.81;;;11.41;100.00
64908;BME280;64365;-1.756;110.040;2023-01-04T05:39:53;101267.97;;;11.30;100.00
64908;BME280;64365;-1.756;110.040;2023-01-04T05:42:19;101264.31;;;11.38;100.00
64908;BME280;64365;-1.756;110.040;2023-01-04T05:44:53;101268.97;;;11.45;100.00
64908;BME280;64365;-1.756;110.040;2023-01-04T05:47:20;101262.81;;;11.41;100.00
64908;BME280;64365;-1.756;110.040;2023-01-04T05:49:48;101255.13;;;11.36;100.00
64908;BME280;64365;-1.756;110.040;2023-01-04T05:52:15;101262.81;;;11.41;100.00
64908;BME280;64365;-1.756;110.040;2023-01-04T05:54:42;101256.69;;;11.37;100.00
64908;BME280;64365;-1.756;110.040;2023-01-04T05:57:09;101243.78;;;11.39;100.00
64908;BME280;64365;-1.756;110.040;2023-01-04T05:59:36;101250.28;;;11.41;100.00
64908;BME280;64365;-1.756;110.040;2023-01-04T06:02:03;101253.03;;;11.49;100.00
64908;BME280;64365;-1.756;110.040;2023-01-04T06:04:30;101249.22;;;11.46;100.00
64908;BME280;64365;-1.756;110.040;2023-01-04T06:06:58;101251.88;;;11.46;100.00
64908;BME280;64365;-1.756;110.040;2023-01-04T06:09:25;101239.38;;;11.50;100.00
64908;BME280;64365;-1.756;110.040;2023-01-04T06:11:52;101278.13;;;11.48;100.00
64908;BME280;64365;-1.756;110.040;2023-01-04T06:14:19;101283.84;;;11.50;100.00
64908;BME280;64365;-1.756;110.040;2023-01-04T06:16:45;101295.31;;;11.54;100.00
64908;BME280;64365;-1.756;110.040;2023-01-04T06:19:12;101293.09;;;11.56;100.00
64908;BME280;64365;-1.756;110.040;2023-01-04T06:21:38;101291.97;;;11.57;100.00
64908;BME280;64365;-1.756;110.040;2023-01-04T06:24:09;101283.28;;;11.63;100.00
64908;BME280;64365;-1.756;110.040;2023-01-04T06:26:35;101276.47;;;11.66;100.00
64908;BME280;64365;-1.756;110.040;2023-01-04T06:29:02;101279.50;;;11.65;100.00
64908;BME280;64365;-1.756;110.040;2023-01-04T06:31:29;101283.28;;;11.63;100.00
64908;BME280;64365;-1.756;110.040;2023-01-04T06:33:55;101280.63;;;11.63;100.00
64908;BME280;64365;-1.756;110.040;2023-01-04T06:36:22;101281.88;;;11.70;100.00
64908;BME280;64365;-1.756;110.040;2023-01-04T06:38:48;101265.16;;;11.73;100.00
64908;BME280;64365;-1.756;110.040;2023-01-04T06:41:16;101270.19;;;11.78;100.00
64908;BME280;64365;-1.756;110.040;2023-01-04T06:43:43;101268.31;;;11.78;100.00
64908;BME280;64365;-1.756;110.040;2023-01-04T06:46:10;101267.16;;;11.79;100.00
64908;BME280;64365;-1.756;110.040;2023-01-04T06:48:36;101265.69;;;11.82;100.00
64908;BME280;64365;-1.756;110.040;2023-01-04T06:51:03;101260.34;;;11.82;100.00
64908;BME280;64365;-1.756;110.040;2023-01-04T06:53:30;101242.53;;;11.86;100.00
64908;BME280;64365;-1.756;110.040;2023-01-04T06:55:56;101246.72;;;11.87;100.00
64908;BME280;64365;-1.756;110.040;2023-01-04T06:58:24;101257.31;;;11.84;100.00
64908;BME280;64365;-1.756;110.040;2023-01-04T07:00:51;101246.72;;;11.87;100.00
64908;BME280;64365;-1.756;110.040;2023-01-04T07:03:18;101243.66;;;11.85;100.00
64908;BME280;64365;-1.756;110.040;2023-01-04T07:05:45;101235.25;;;11.83;100.00
64908;BME280;64365;-1.756;110.040;2023-01-04T07:08:13;101244.78;;;11.84;100.00
64908;BME280;64365;-1.756;110.040;2023-01-04T07:10:40;101237.19;;;11.86;100.00
64908;BME280;64365;-1.756;110.040;2023-01-04T07:13:07;101236.44;;;11.86;100.00
64908;BME280;64365;-1.756;110.040;2023-01-04T07:15:36;101240.22;;;11.85;100.00
64908;BME280;64365;-1.756;110.040;2023-01-04T07:18:03;101233.72;;;11.82;100.00
64908;BME280;64365;-1.756;110.040;2023-01-04T07:20:29;101229.19;;;11.83;100.00
64908;BME280;64365;-1.756;110.040;2023-01-04T07:22:56;101230.25;;;11.78;100.00
64908;BME280;64365;-1.756;110.040;2023-01-04T07:25:22;101199.50;;;11.54;100.00
64908;BME280;64365;-1.756;110.040;2023-01-04T07:27:50;101208.63;;;11.83;100.00
64908;BME280;64365;-1.756;110.040;2023-01-04T07:30:17;101237.16;;;11.83;100.00
64908;BME280;64365;-1.756;110.040;2023-01-04T07:32:46;101229.19;;;11.83;100.00
64908;BME280;64365;-1.756;110.040;2023-01-04T07:35:12;101236.69;;;11.77;100.00
64908;BME280;64365;-1.756;110.040;2023-01-04T07:37:39;101198.47;;;11.62;100.00
64908;BME280;64365;-1.756;110.040;2023-01-04T07:40:08;101226.38;;;11.72;100.00
64908;BME280;64365;-1.756;110.040;2023-01-04T07:42:35;101228.31;;;11.75;100.00
64908;BME280;64365;-1.756;110.040;2023-01-04T07:45:01;101215.34;;;11.73;100.00
64908;BME280;64365;-1.756;110.040;2023-01-04T07:47:28;101221.75;;;11.69;100.00
64908;BME280;64365;-1.756;110.040;2023-01-04T07:49:56;101216.84;;;11.71;100.00
64908;BME280;64365;-1.756;110.040;2023-01-04T07:52:24;101214.56;;;11.73;100.00
64908;BME280;64365;-1.756;110.040;2023-01-04T07:54:51;101214.94;;;11.71;100.00
64908;BME280;64365;-1.756;110.040;2023-01-04T07:57:18;101218.03;;;11.73;100.00
64908;BME280;64365;-1.756;110.040;2023-01-04T07:59:44;101202.41;;;11.72;100.00
64908;BME280;64365;-1.756;110.040;2023-01-04T08:02:11;101201.69;;;11.75;100.00
64908;BME280;64365;-1.756;110.040;2023-01-04T08:04:39;101206.94;;;11.71;100.00
64908;BME280;64365;-1.756;110.040;2023-01-04T08:07:06;101210.03;;;11.73;100.00
64908;BME280;64365;-1.756;110.040;2023-01-04T08:09:33;101203.56;;;11.74;100.00
64908;BME280;64365;-1.756;110.040;2023-01-04T08:12:00;101206.91;;;11.68;100.00
64908;BME280;64365;-1.756;110.040;2023-01-04T08:14:26;101219.91;;;11.73;100.00
64908;BME280;64365;-1.756;110.040;2023-01-04T08:16:53;101211.16;;;11.72;100.00
64908;BME280;64365;-1.756;110.040;2023-01-04T08:19:20;101207.75;;;11.72;100.00
64908;BME280;64365;-1.756;110.040;2023-01-04T08:21:47;101201.31;;;11.76;100.00
64908;BME280;64365;-1.756;110.040;2023-01-04T08:24:17;101213.06;;;11.72;100.00
64908;BME280;64365;-1.756;110.040;2023-01-04T08:26:44;101225.28;;;11.76;100.00
64908;BME280;64365;-1.756;110.040;2023-01-04T08:29:11;101226.75;;;11.74;100.00
64908;BME280;64365;-1.756;110.040;2023-01-04T08:31:38;101218.41;;;11.75;100.00
64908;BME280;64365;-1.756;110.040;2023-01-04T08:34:06;101223.44;;;11.80;100.00
64908;BME280;64365;-1.756;110.040;2023-01-04T08:36:35;101228.38;;;11.78;100.00
64908;BME280;64365;-1.756;110.040;2023-01-04T08:39:04;101230.66;;;11.80;100.00
64908;BME280;64365;-1.756;110.040;2023-01-04T08:41:34;101232.19;;;11.81;100.00
64908;BME280;64365;-1.756;110.040;2023-01-04T08:44:15;101233.31;;;11.80;100.00
64908;BME280;64365;-1.756;110.040;2023-01-04T08:46:41;101240.59;;;11.83;100.00
64908;BME280;64365;-1.756;110.040;2023-01-04T08:49:08;101239.09;;;11.86;100.00
64908;BME280;64365;-1.756;110.040;2023-01-04T08:51:34;101244.47;;;11.89;100.00
64908;BME280;64365;-1.756;110.040;2023-01-04T08:54:01;101239.84;;;11.86;100.00
64908;BME280;64365;-1.756;110.040;2023-01-04T08:56:28;101241.44;;;11.91;100.00
64908;BME280;64365;-1.756;110.040;2023-01-04T08:58:55;101243.66;;;11.85;100.00
64908;BME280;64365;-1.756;110.040;2023-01-04T09:01:22;101252.41;;;11.86;100.00
64908;BME280;64365;-1.756;110.040;2023-01-04T09:03:49;101245.59;;;11.88;100.00
64908;BME280;64365;-1.756;110.040;2023-01-04T09:06:15;101252.47;;;11.89;100.00
64908;BME280;64365;-1.756;110.040;2023-01-04T09:08:43;101251.03;;;11.95;100.00
64908;BME280;64365;-1.756;110.040;2023-01-04T09:11:11;101261.28;;;11.93;100.00
64908;BME280;64365;-1.756;110.040;2023-01-04T09:13:39;101260.56;;;11.96;100.00
64908;BME280;64365;-1.756;110.040;2023-01-04T09:16:09;101260.56;;;11.96;100.00
64908;BME280;64365;-1.756;110.040;2023-01-04T09:18:35;101256.00;;;11.97;100.00
64908;BME280;64365;-1.756;110.040;2023-01-04T09:21:04;101258.34;;;12.02;100.00
64908;BME280;64365;-1.756;110.040;2023-01-04T09:23:31;101244.72;;;12.07;100.00
64908;BME280;64365;-1.756;110.040;2023-01-04T09:25:59;101248.56;;;12.10;100.00
64908;BME280;64365;-1.756;110.040;2023-01-04T09:28:25;101250.91;;;12.15;100.00
64908;BME280;64365;-1.756;110.040;2023-01-04T09:30:52;101263.81;;;12.13;100.00
64908;BME280;64365;-1.756;110.040;2023-01-04T09:33:20;101258.53;;;12.17;100.00
64908;BME280;64365;-1.756;110.040;2023-01-04T09:35:46;101261.66;;;12.22;100.00
64908;BME280;64365;-1.756;110.040;2023-01-04T09:38:13;101269.31;;;12.27;100.00
64908;BME280;64365;-1.756;110.040;2023-01-04T09:40:48;101280.38;;;12.29;100.00
64908;BME280;64365;-1.756;110.040;2023-01-04T09:43:18;101275.84;;;12.34;100.00
64908;BME280;64365;-1.756;110.040;2023-01-04T09:45:46;101262.53;;;12.34;100.00
64908;BME280;64365;-1.756;110.040;2023-01-04T09:48:18;101264.94;;;12.42;100.00
64908;BME280;64365;-1.756;110.040;2023-01-04T09:50:51;101261.81;;;12.37;100.00
64908;BME280;64365;-1.756;110.040;2023-01-04T09:53:22;101266.00;;;12.38;100.00
64908;BME280;64365;-1.756;110.040;2023-01-04T09:55:52;101264.94;;;12.42;100.00
64908;BME280;64365;-1.756;110.040;2023-01-04T09:58:24;101256.13;;;12.42;100.00
64908;BME280;64365;-1.756;110.040;2023-01-04T10:00:59;101266.81;;;12.42;100.00
64908;BME280;64365;-1.756;110.040;2023-01-04T10:03:29;101269.09;;;12.40;100.00
64908;BME280;64365;-1.756;110.040;2023-01-04T10:06:00;101273.31;;;12.44;100.00
64908;BME280;64365;-1.756;110.040;2023-01-04T10:08:27;101268.03;;;12.48;100.00
64908;BME280;64365;-1.756;110.040;2023-01-04T10:11:16;101274.91;;;12.49;100.00
64908;BME280;64365;-1.756;110.040;2023-01-04T10:13:56;101272.19;;;12.45;100.00
64908;BME280;64365;-1.756;110.040;2023-01-04T10:16:39;101267.28;;;12.48;100.00
64908;BME280;64365;-1.756;110.040;2023-01-04T10:19:23;101269.56;;;12.49;100.00
64908;BME280;64365;-1.756;110.040;2023-01-04T10:21:55;101268.03;;;12.48;100.00
64908;BME280;64365;-1.756;110.040;2023-01-04T10:24:44;101271.88;;;12.51;100.00
64908;BME280;64365;-1.756;110.040;2023-01-04T10:27:23;101271.50;;;12.52;100.00
64908;BME280;64365;-1.756;110.040;2023-01-04T10:30:12;101268.13;;;12.59;100.00
64908;BME280;64365;-1.756;110.040;2023-01-04T10:32:44;101277.63;;;12.56;100.00
64908;BME280;64365;-1.756;110.040;2023-01-04T10:35:18;101268.09;;;12.55;100.00
64908;BME280;64365;-1.756;110.040;2023-01-04T10:37:48;101269.59;;;12.53;100.00
64908;BME280;64365;-1.756;110.040;2023-01-04T10:40:17;101253.63;;;12.56;100.00
64908;BME280;64365;-1.756;110.040;2023-01-04T10:42:51;101260.50;;;12.57;100.00
64908;BME280;64365;-1.756;110.040;2023-01-04T10:45:23;101268.53;;;12.61;100.00
64908;BME280;64365;-1.756;110.040;2023-01-04T10:48:00;101262.06;;;12.58;100.00
64908;BME280;64365;-1.756;110.040;2023-01-04T10:50:37;101250.97;;;12.56;100.00
64908;BME280;64365;-1.756;110.040;2023-01-04T10:53:12;101243.34;;;12.55;100.00
64908;BME280;64365;-1.756;110.040;2023-01-04T10:55:45;101250.59;;;12.58;100.00
64908;BME280;64365;-1.756;110.040;2023-01-04T10:58:18;101258.16;;;12.52;100.00
64908;BME280;64365;-1.756;110.040;2023-01-04T11:00:51;101244.88;;;12.56;100.00
64908;BME280;64365;-1.756;110.040;2023-01-04T11:03:23;101232.31;;;12.56;100.00
64908;BME280;64365;-1.756;110.040;2023-01-04T11:05:53;101227.72;;;12.57;100.00
64908;BME280;64365;-1.756;110.040;2023-01-04T11:08:27;101224.63;;;12.51;100.00
64908;BME280;64365;-1.756;110.040;2023-01-04T11:10:59;101204.09;;;12.55;100.00
64908;BME280;64365;-1.756;110.040;2023-01-04T11:13:29;101208.31;;;12.56;100.00
64908;BME280;64365;-1.756;110.040;2023-01-04T11:15:56;101194.25;;;12.59;100.00
64908;BME280;64365;-1.756;110.040;2023-01-04T11:18:25;101203.41;;;12.62;100.00
64908;BME280;64365;-1.756;110.040;2023-01-04T11:20:52;101206.13;;;12.66;100.00
64908;BME280;64365;-1.756;110.040;2023-01-04T11:23:19;101227.03;;;12.63;100.00
64908;BME280;64365;-1.756;110.040;2023-01-04T11:25:50;101190.50;;;12.68;100.00
64908;BME280;64365;-1.756;110.040;2023-01-04T11:28:21;101201.97;;;12.72;100.00
64908;BME280;64365;-1.756;110.040;2023-01-04T11:30:54;101200.44;;;12.71;100.00
64908;BME280;64365;-1.756;110.040;2023-01-04T11:33:23;101203.88;;;12.71;100.00
64908;BME280;64365;-1.756;110.040;2023-01-04T11:35:51;101199.72;;;12.74;100.00
64908;BME280;64365;-1.756;110.040;2023-01-04T11:38:21;101206.59;;;12.78;100.00
64908;BME280;64365;-1.756;110.040;2023-01-04T11:40:58;101184.50;;;12.78;100.00
64908;BME280;64365;-1.756;110.040;2023-01-04T11:43:26;101183.75;;;12.77;100.00
64908;BME280;64365;-1.756;110.040;2023-01-04T11:45:59;101199.38;;;12.83;100.00
64908;BME280;64365;-1.756;110.040;2023-01-04T11:48:32;101191.75;;;12.81;100.00
64908;BME280;64365;-1.756;110.040;2023-01-04T11:50:59;101200.22;;;12.87;100.00
64908;BME280;64365;-1.756;110.040;2023-01-04T11:53:29;101219.63;;;12.87;100.00
64908;BME280;64365;-1.756;110.040;2023-01-04T11:56:14;101205.19;;;12.92;100.00
64908;BME280;64365;-1.756;110.040;2023-01-04T11:58:42;101213.22;;;12.95;100.00
64908;BME280;64365;-1.756;110.040;2023-01-04T12:01:20;101192.28;;;12.97;100.00
64908;BME280;64365;-1.756;110.040;2023-01-04T12:03:47;101209.44;;;13.00;100.00
64908;BME280;64365;-1.756;110.040;2023-01-04T12:06:18;101204.50;;;13.02;100.00
64908;BME280;64365;-1.756;110.040;2023-01-04T12:08:46;101193.84;;;13.02;100.00
64908;BME280;64365;-1.756;110.040;2023-01-04T12:11:21;101200.69;;;13.00;100.00
64908;BME280;64365;-1.756;110.040;2023-01-04T12:13:50;101199.56;;;13.04;100.00
64908;BME280;64365;-1.756;110.040;2023-01-04T12:16:23;101194.63;;;13.06;100.00
64908;BME280;64365;-1.756;110.040;2023-01-04T12:18:53;101198.47;;;13.09;100.00
64908;BME280;64365;-1.756;110.040;2023-01-04T12:21:21;101186.25;;;13.08;100.00
64908;BME280;64365;-1.756;110.040;2023-01-04T12:23:49;101207.22;;;13.09;100.00
64908;BME280;64365;-1.756;110.040;2023-01-04T12:26:18;101195.44;;;13.14;99.96
64908;BME280;64365;-1.756;110.040;2023-01-04T12:28:49;101189.75;;;13.16;100.00
64908;BME280;64365;-1.756;110.040;2023-01-04T12:31:31;101185.50;;;13.07;100.00
64908;BME280;64365;-1.756;110.040;2023-01-04T12:36:56;101188.19;;;13.14;99.60
64908;BME280;64365;-1.756;110.040;2023-01-04T12:39:38;101190.50;;;13.16;98.96
64908;BME280;64365;-1.756;110.040;2023-01-04T12:42:11;101189.78;;;13.19;98.88
64908;BME280;64365;-1.756;110.040;2023-01-04T12:44:59;101192.78;;;13.18;98.21
64908;BME280;64365;-1.756;110.040;2023-01-04T12:47:40;101193.56;;;13.18;98.13